sensor_id;sensor_type;location;lat;lon;timestamp;P1;durP1;ratioP1;P2;durP2;ratioP2
14247;SDS011;7208;49.826;6.004;2023-03-19T00:01:41;2.37;;;1.37;;
14247;SDS011;7208;49.826;6.004;2023-03-19T00:04:07;2.23;;;1.10;;
14247;SDS011;7208;49.826;6.004;2023-03-19T00:06:33;1.30;;;1.20;;
14247;SDS011;7208;49.826;6.004;2023-03-19T00:08:59;1.80;;;1.20;;
14247;SDS011;7208;49.826;6.004;2023-03-19T00:11:25;2.17;;;1.27;;
14247;SDS011;7208;49.826;6.004;2023-03-19T00:13:51;1.37;;;1.27;;
14247;SDS011;7208;49.826;6.004;2023-03-19T00:16:17;1.83;;;1.30;;
14247;SDS011;7208;49.826;6.004;2023-03-19T00:18:43;3.37;;;1.37;;
14247;SDS011;7208;49.826;6.004;2023-03-19T00:21:09;1.30;;;1.20;;
14247;SDS011;7208;49.826;6.004;2023-03-19T00:23:35;1.17;;;1.17;;
14247;SDS011;7208;49.826;6.004;2023-03-19T00:26:02;1.90;;;1.10;;
14247;SDS011;7208;49.826;6.004;2023-03-19T00:28:28;1.30;;;1.20;;
14247;SDS011;7208;49.826;6.004;2023-03-19T00:30:55;1.10;;;1.10;;
14247;SDS011;7208;49.826;6.004;2023-03-19T00:33:20;1.50;;;1.30;;
14247;SDS011;7208;49.826;6.004;2023-03-19T00:35:47;1.03;;;1.03;;
14247;SDS011;7208;49.826;6.004;2023-03-19T00:38:13;1.10;;;1.03;;
14247;SDS011;7208;49.826;6.004;2023-03-19T00:40:39;1.53;;;1.10;;
14247;SDS011;7208;49.826;6.004;2023-03-19T00:43:05;1.10;;;1.00;;
14247;SDS011;7208;49.826;6.004;2023-03-19T00:45:31;3.73;;;1.00;;
14247;SDS011;7208;49.826;6.004;2023-03-19T00:47:57;1.37;;;1.17;;
14247;SDS011;7208;49.826;6.004;2023-03-19T00:50:23;1.30;;;1.20;;
14247;SDS011;7208;49.826;6.004;2023-03-19T00:52:49;1.33;;;1.10;;
14247;SDS011;7208;49.826;6.004;2023-03-19T00:55:16;2.77;;;1.07;;
14247;SDS011;7208;49.826;6.004;2023-03-19T00:57:42;0.80;;;0.80;;
14247;SDS011;7208;49.826;6.004;2023-03-19T01:00:08;3.10;;;1.27;;
14247;SDS011;7208;49.826;6.004;2023-03-19T01:02:35;1.10;;;1.00;;
14247;SDS011;7208;49.826;6.004;2023-03-19T01:05:01;1.93;;;1.20;;
14247;SDS011;7208;49.826;6.004;2023-03-19T01:07:27;1.17;;;1.00;;
14247;SDS011;7208;49.826;6.004;2023-03-19T01:09:53;1.30;;;1.00;;
14247;SDS011;7208;49.826;6.004;2023-03-19T01:12:19;1.37;;;1.17;;
14247;SDS011;7208;49.826;6.004;2023-03-19T01:14:45;3.10;;;1.10;;
14247;SDS011;7208;49.826;6.004;2023-03-19T01:17:11;1.20;;;1.10;;
14247;SDS011;7208;49.826;6.004;2023-03-19T01:19:37;0.87;;;0.87;;
14247;SDS011;7208;49.826;6.004;2023-03-19T01:22:03;1.20;;;1.00;;
14247;SDS011;7208;49.826;6.004;2023-03-19T01:24:29;0.90;;;0.90;;
14247;SDS011;7208;49.826;6.004;2023-03-19T01:26:56;1.47;;;0.73;;
14247;SDS011;7208;49.826;6.004;2023-03-19T01:29:22;1.20;;;1.10;;
14247;SDS011;7208;49.826;6.004;2023-03-19T01:31:48;0.90;;;0.90;;
14247;SDS011;7208;49.826;6.004;2023-03-19T01:34:14;1.40;;;1.30;;
14247;SDS011;7208;49.826;6.004;2023-03-19T01:36:40;1.57;;;1.10;;
14247;SDS011;7208;49.826;6.004;2023-03-19T01:39:06;2.27;;;1.10;;
14247;SDS011;7208;49.826;6.004;2023-03-19T01:41:32;1.17;;;1.00;;
14247;SDS011;7208;49.826;6.004;2023-03-19T01:43:58;0.80;;;0.80;;
14247;SDS011;7208;49.826;6.004;2023-03-19T01:46:29;3.10;;;1.00;;
14247;SDS011;7208;49.826;6.004;2023-03-19T01:48:59;1.17;;;1.07;;
14247;SDS011;7208;49.826;6.004;2023-03-19T01:51:27;1.00;;;1.00;;
14247;SDS011;7208;49.826;6.004;2023-03-19T01:54:01;1.63;;;1.20;;
14247;SDS011;7208;49.826;6.004;2023-03-19T01:56:30;1.20;;;1.10;;
14247;SDS011;7208;49.826;6.004;2023-03-19T01:58:59;1.00;;;1.00;;
14247;SDS011;7208;49.826;6.004;2023-03-19T02:01:26;1.07;;;1.00;;
14247;SDS011;7208;49.826;6.004;2023-03-19T02:03:53;1.50;;;1.40;;
14247;SDS011;7208;49.826;6.004;2023-03-19T02:06:19;1.10;;;1.10;;
14247;SDS011;7208;49.826;6.004;2023-03-19T02:08:46;1.20;;;1.20;;
14247;SDS011;7208;49.826;6.004;2023-03-19T02:11:13;1.10;;;1.00;;
14247;SDS011;7208;49.826;6.004;2023-03-19T02:13:40;2.03;;;1.40;;
14247;SDS011;7208;49.826;6.004;2023-03-19T02:16:06;1.00;;;1.00;;
14247;SDS011;7208;49.826;6.004;2023-03-19T02:18:33;1.27;;;1.17;;
14247;SDS011;7208;49.826;6.004;2023-03-19T02:23:32;1.10;;;1.00;;
14247;SDS011;7208;49.826;6.004;2023-03-19T02:26:00;1.40;;;1.20;;
14247;SDS011;7208;49.826;6.004;2023-03-19T02:28:26;1.33;;;1.23;;
14247;SDS011;7208;49.826;6.004;2023-03-19T02:30:53;1.67;;;1.10;;
14247;SDS011;7208;49.826;6.004;2023-03-19T02:33:19;1.17;;;1.07;;
14247;SDS011;7208;49.826;6.004;2023-03-19T02:35:46;1.10;;;1.00;;
14247;SDS011;7208;49.826;6.004;2023-03-19T02:38:13;1.60;;;1.50;;
14247;SDS011;7208;49.826;6.004;2023-03-19T02:40:44;1.10;;;1.00;;
14247;SDS011;7208;49.826;6.004;2023-03-19T02:43:12;1.40;;;1.30;;
14247;SDS011;7208;49.826;6.004;2023-03-19T02:45:38;1.20;;;1.20;;
14247;SDS011;7208;49.826;6.004;2023-03-19T02:48:04;1.20;;;1.10;;
14247;SDS011;7208;49.826;6.004;2023-03-19T02:50:30;1.30;;;1.20;;
14247;SDS011;7208;49.826;6.004;2023-03-19T02:52:56;1.30;;;1.20;;
14247;SDS011;7208;49.826;6.004;2023-03-19T02:55:22;1.50;;;1.20;;
14247;SDS011;7208;49.826;6.004;2023-03-19T02:57:48;1.63;;;1.17;;
14247;SDS011;7208;49.826;6.004;2023-03-19T03:00:15;1.17;;;1.00;;
14247;SDS011;7208;49.826;6.004;2023-03-19T03:02:42;1.77;;;0.90;;
14247;SDS011;7208;49.826;6.004;2023-03-19T03:05:08;1.70;;;1.10;;
14247;SDS011;7208;49.826;6.004;2023-03-19T03:07:34;2.53;;;0.90;;
14247;SDS011;7208;49.826;6.004;2023-03-19T03:10:01;1.60;;;1.00;;
14247;SDS011;7208;49.826;6.004;2023-03-19T03:12:27;1.70;;;1.17;;
14247;SDS011;7208;49.826;6.004;2023-03-19T03:14:53;0.80;;;0.80;;
14247;SDS011;7208;49.826;6.004;2023-03-19T03:17:19;1.03;;;1.03;;
14247;SDS011;7208;49.826;6.004;2023-03-19T03:19:45;1.00;;;1.00;;
14247;SDS011;7208;49.826;6.004;2023-03-19T03:22:11;2.30;;;1.40;;
14247;SDS011;7208;49.826;6.004;2023-03-19T03:24:37;0.97;;;0.83;;
14247;SDS011;7208;49.826;6.004;2023-03-19T03:27:03;1.17;;;1.07;;
14247;SDS011;7208;49.826;6.004;2023-03-19T03:29:29;1.07;;;0.97;;
14247;SDS011;7208;49.826;6.004;2023-03-19T03:31:56;1.10;;;1.07;;
14247;SDS011;7208;49.826;6.004;2023-03-19T03:34:22;0.90;;;0.90;;
14247;SDS011;7208;49.826;6.004;2023-03-19T03:36:48;1.20;;;1.10;;
14247;SDS011;7208;49.826;6.004;2023-03-19T03:39:14;1.20;;;1.07;;
14247;SDS011;7208;49.826;6.004;2023-03-19T03:41:40;1.10;;;1.10;;
14247;SDS011;7208;49.826;6.004;2023-03-19T03:44:07;1.40;;;1.30;;
14247;SDS011;7208;49.826;6.004;2023-03-19T03:46:33;1.57;;;1.10;;
14247;SDS011;7208;49.826;6.004;2023-03-19T03:48:59;1.20;;;1.17;;
14247;SDS011;7208;49.826;6.004;2023-03-19T03:51:25;1.30;;;1.20;;
14247;SDS011;7208;49.826;6.004;2023-03-19T03:53:51;1.17;;;1.17;;
14247;SDS011;7208;49.826;6.004;2023-03-19T03:56:17;1.30;;;1.20;;
14247;SDS011;7208;49.826;6.004;2023-03-19T03:58:43;1.43;;;1.10;;
14247;SDS011;7208;49.826;6.004;2023-03-19T04:01:16;1.10;;;1.00;;
14247;SDS011;7208;49.826;6.004;2023-03-19T04:03:42;1.33;;;1.10;;
14247;SDS011;7208;49.826;6.004;2023-03-19T04:06:12;1.20;;;1.10;;
14247;SDS011;7208;49.826;6.004;2023-03-19T04:08:39;1.40;;;1.30;;
14247;SDS011;7208;49.826;6.004;2023-03-19T04:11:06;1.47;;;1.00;;
14247;SDS011;7208;49.826;6.004;2023-03-19T04:13:32;2.10;;;1.00;;
14247;SDS011;7208;49.826;6.004;2023-03-19T04:16:01;1.40;;;1.30;;
14247;SDS011;7208;49.826;6.004;2023-03-19T04:18:27;1.83;;;1.07;;
14247;SDS011;7208;49.826;6.004;2023-03-19T04:20:53;1.27;;;1.17;;
14247;SDS011;7208;49.826;6.004;2023-03-19T04:23:19;1.40;;;1.30;;
14247;SDS011;7208;49.826;6.004;2023-03-19T04:25:45;1.13;;;1.10;;
14247;SDS011;7208;49.826;6.004;2023-03-19T04:28:12;1.57;;;1.30;;
14247;SDS011;7208;49.826;6.004;2023-03-19T04:30:38;1.40;;;1.30;;
14247;SDS011;7208;49.826;6.004;2023-03-19T04:33:04;1.50;;;1.40;;
14247;SDS011;7208;49.826;6.004;2023-03-19T04:35:30;1.33;;;1.23;;
14247;SDS011;7208;49.826;6.004;2023-03-19T04:37:57;1.67;;;1.17;;
14247;SDS011;7208;49.826;6.004;2023-03-19T04:40:23;1.17;;;1.10;;
14247;SDS011;7208;49.826;6.004;2023-03-19T04:42:49;1.00;;;1.00;;
14247;SDS011;7208;49.826;6.004;2023-03-19T04:45:15;1.77;;;1.67;;
14247;SDS011;7208;49.826;6.004;2023-03-19T04:47:41;1.23;;;1.13;;
14247;SDS011;7208;49.826;6.004;2023-03-19T04:50:08;0.97;;;0.97;;
14247;SDS011;7208;49.826;6.004;2023-03-19T04:52:34;0.90;;;0.90;;
14247;SDS011;7208;49.826;6.004;2023-03-19T04:55:02;1.60;;;1.30;;
14247;SDS011;7208;49.826;6.004;2023-03-19T04:57:28;2.03;;;1.83;;
14247;SDS011;7208;49.826;6.004;2023-03-19T04:59:54;1.20;;;1.10;;
14247;SDS011;7208;49.826;6.004;2023-03-19T05:02:20;1.20;;;1.10;;
14247;SDS011;7208;49.826;6.004;2023-03-19T05:04:46;1.23;;;1.10;;
14247;SDS011;7208;49.826;6.004;2023-03-19T05:07:12;1.50;;;1.40;;
14247;SDS011;7208;49.826;6.004;2023-03-19T05:09:38;1.43;;;1.33;;
14247;SDS011;7208;49.826;6.004;2023-03-19T05:12:04;1.67;;;1.07;;
14247;SDS011;7208;49.826;6.004;2023-03-19T05:14:30;1.40;;;1.07;;
14247;SDS011;7208;49.826;6.004;2023-03-19T05:16:56;2.93;;;1.30;;
14247;SDS011;7208;49.826;6.004;2023-03-19T05:19:23;2.80;;;1.60;;
14247;SDS011;7208;49.826;6.004;2023-03-19T05:21:49;0.97;;;0.97;;
14247;SDS011;7208;49.826;6.004;2023-03-19T05:24:15;1.93;;;1.40;;
14247;SDS011;7208;49.826;6.004;2023-03-19T05:26:41;1.43;;;1.20;;
14247;SDS011;7208;49.826;6.004;2023-03-19T05:29:07;1.50;;;1.20;;
14247;SDS011;7208;49.826;6.004;2023-03-19T05:31:35;1.17;;;1.10;;
14247;SDS011;7208;49.826;6.004;2023-03-19T05:34:01;3.20;;;1.30;;
14247;SDS011;7208;49.826;6.004;2023-03-19T05:36:27;1.30;;;1.20;;
14247;SDS011;7208;49.826;6.004;2023-03-19T05:38:54;1.40;;;1.30;;
14247;SDS011;7208;49.826;6.004;2023-03-19T05:41:20;2.20;;;1.23;;
14247;SDS011;7208;49.826;6.004;2023-03-19T05:43:46;1.70;;;1.60;;
14247;SDS011;7208;49.826;6.004;2023-03-19T05:46:12;1.40;;;1.30;;
14247;SDS011;7208;49.826;6.004;2023-03-19T05:48:39;1.60;;;1.50;;
14247;SDS011;7208;49.826;6.004;2023-03-19T05:51:05;1.63;;;1.40;;
14247;SDS011;7208;49.826;6.004;2023-03-19T05:53:31;1.40;;;1.30;;
14247;SDS011;7208;49.826;6.004;2023-03-19T05:55:58;2.17;;;1.43;;
14247;SDS011;7208;49.826;6.004;2023-03-19T05:58:24;1.20;;;1.10;;
14247;SDS011;7208;49.826;6.004;2023-03-19T06:00:52;1.53;;;1.30;;
14247;SDS011;7208;49.826;6.004;2023-03-19T06:03:20;1.47;;;1.27;;
14247;SDS011;7208;49.826;6.004;2023-03-19T06:05:47;1.63;;;1.53;;
14247;SDS011;7208;49.826;6.004;2023-03-19T06:08:14;2.53;;;1.57;;
14247;SDS011;7208;49.826;6.004;2023-03-19T06:10:40;1.90;;;1.47;;
14247;SDS011;7208;49.826;6.004;2023-03-19T06:13:06;3.13;;;1.60;;
14247;SDS011;7208;49.826;6.004;2023-03-19T06:15:33;1.63;;;1.53;;
14247;SDS011;7208;49.826;6.004;2023-03-19T06:17:59;2.60;;;2.13;;
14247;SDS011;7208;49.826;6.004;2023-03-19T06:20:25;1.57;;;1.43;;
14247;SDS011;7208;49.826;6.004;2023-03-19T06:22:51;1.60;;;1.50;;
14247;SDS011;7208;49.826;6.004;2023-03-19T06:25:18;1.70;;;1.60;;
14247;SDS011;7208;49.826;6.004;2023-03-19T06:27:44;1.40;;;1.37;;
14247;SDS011;7208;49.826;6.004;2023-03-19T06:30:10;2.13;;;1.63;;
14247;SDS011;7208;49.826;6.004;2023-03-19T06:32:37;1.50;;;1.40;;
14247;SDS011;7208;49.826;6.004;2023-03-19T06:35:03;1.70;;;1.60;;
14247;SDS011;7208;49.826;6.004;2023-03-19T06:37:30;1.93;;;1.60;;
14247;SDS011;7208;49.826;6.004;2023-03-19T06:39:56;1.70;;;1.60;;
14247;SDS011;7208;49.826;6.004;2023-03-19T06:42:22;1.67;;;1.57;;
14247;SDS011;7208;49.826;6.004;2023-03-19T06:44:48;1.90;;;1.73;;
14247;SDS011;7208;49.826;6.004;2023-03-19T06:47:14;2.97;;;1.60;;
14247;SDS011;7208;49.826;6.004;2023-03-19T06:49:40;1.70;;;1.60;;
14247;SDS011;7208;49.826;6.004;2023-03-19T06:52:08;1.50;;;1.40;;
14247;SDS011;7208;49.826;6.004;2023-03-19T06:54:34;2.77;;;1.70;;
14247;SDS011;7208;49.826;6.004;2023-03-19T06:57:00;2.27;;;1.70;;
14247;SDS011;7208;49.826;6.004;2023-03-19T06:59:26;1.70;;;1.60;;
14247;SDS011;7208;49.826;6.004;2023-03-19T07:01:52;2.00;;;1.87;;
14247;SDS011;7208;49.826;6.004;2023-03-19T07:04:18;1.47;;;1.37;;
14247;SDS011;7208;49.826;6.004;2023-03-19T07:06:45;1.60;;;1.50;;
14247;SDS011;7208;49.826;6.004;2023-03-19T07:09:11;3.60;;;1.47;;
14247;SDS011;7208;49.826;6.004;2023-03-19T07:11:37;2.43;;;1.77;;
14247;SDS011;7208;49.826;6.004;2023-03-19T07:14:03;1.90;;;1.80;;
14247;SDS011;7208;49.826;6.004;2023-03-19T07:16:29;1.80;;;1.70;;
14247;SDS011;7208;49.826;6.004;2023-03-19T07:18:55;2.17;;;1.90;;
14247;SDS011;7208;49.826;6.004;2023-03-19T07:21:22;1.80;;;1.60;;
14247;SDS011;7208;49.826;6.004;2023-03-19T07:23:48;2.10;;;1.93;;
14247;SDS011;7208;49.826;6.004;2023-03-19T07:26:17;1.77;;;1.67;;
14247;SDS011;7208;49.826;6.004;2023-03-19T07:28:43;2.40;;;2.07;;
14247;SDS011;7208;49.826;6.004;2023-03-19T07:31:09;1.80;;;1.70;;
14247;SDS011;7208;49.826;6.004;2023-03-19T07:33:36;2.20;;;2.00;;
14247;SDS011;7208;49.826;6.004;2023-03-19T07:36:02;1.90;;;1.80;;
14247;SDS011;7208;49.826;6.004;2023-03-19T07:38:28;2.00;;;1.77;;
14247;SDS011;7208;49.826;6.004;2023-03-19T07:40:54;2.13;;;1.90;;
14247;SDS011;7208;49.826;6.004;2023-03-19T07:43:20;2.03;;;1.93;;
14247;SDS011;7208;49.826;6.004;2023-03-19T07:45:46;4.60;;;1.90;;
14247;SDS011;7208;49.826;6.004;2023-03-19T07:48:12;2.07;;;1.97;;
14247;SDS011;7208;49.826;6.004;2023-03-19T07:50:38;2.67;;;2.00;;
14247;SDS011;7208;49.826;6.004;2023-03-19T07:53:04;1.83;;;1.70;;
14247;SDS011;7208;49.826;6.004;2023-03-19T07:55:30;1.93;;;1.83;;
14247;SDS011;7208;49.826;6.004;2023-03-19T07:57:56;2.20;;;2.00;;
14247;SDS011;7208;49.826;6.004;2023-03-19T08:00:22;3.67;;;1.80;;
14247;SDS011;7208;49.826;6.004;2023-03-19T08:02:48;2.53;;;2.33;;
14247;SDS011;7208;49.826;6.004;2023-03-19T08:05:14;2.67;;;2.20;;
14247;SDS011;7208;49.826;6.004;2023-03-19T08:07:40;2.10;;;1.90;;
14247;SDS011;7208;49.826;6.004;2023-03-19T08:10:07;1.80;;;1.70;;
14247;SDS011;7208;49.826;6.004;2023-03-19T08:12:33;2.10;;;2.00;;
14247;SDS011;7208;49.826;6.004;2023-03-19T08:15:05;2.37;;;2.07;;
14247;SDS011;7208;49.826;6.004;2023-03-19T08:17:31;3.07;;;2.60;;
14247;SDS011;7208;49.826;6.004;2023-03-19T08:20:12;2.23;;;2.03;;
14247;SDS011;7208;49.826;6.004;2023-03-19T08:22:40;2.40;;;2.20;;
14247;SDS011;7208;49.826;6.004;2023-03-19T08:25:07;2.07;;;1.80;;
14247;SDS011;7208;49.826;6.004;2023-03-19T08:27:33;2.13;;;2.00;;
14247;SDS011;7208;49.826;6.004;2023-03-19T08:30:01;1.80;;;1.70;;
14247;SDS011;7208;49.826;6.004;2023-03-19T08:32:28;3.90;;;2.20;;
14247;SDS011;7208;49.826;6.004;2023-03-19T08:34:54;2.10;;;2.00;;
14247;SDS011;7208;49.826;6.004;2023-03-19T08:37:20;2.60;;;2.37;;
14247;SDS011;7208;49.826;6.004;2023-03-19T08:39:46;2.23;;;2.07;;
14247;SDS011;7208;49.826;6.004;2023-03-19T08:42:14;2.27;;;2.07;;
14247;SDS011;7208;49.826;6.004;2023-03-19T08:44:40;2.40;;;2.20;;
14247;SDS011;7208;49.826;6.004;2023-03-19T08:47:06;2.13;;;1.90;;
14247;SDS011;7208;49.826;6.004;2023-03-19T08:49:32;2.30;;;2.20;;
14247;SDS011;7208;49.826;6.004;2023-03-19T08:51:59;2.47;;;2.20;;
14247;SDS011;7208;49.826;6.004;2023-03-19T08:54:25;3.33;;;2.03;;
14247;SDS011;7208;49.826;6.004;2023-03-19T08:56:51;1.80;;;1.70;;
14247;SDS011;7208;49.826;6.004;2023-03-19T08:59:17;2.23;;;2.03;;
14247;SDS011;7208;49.826;6.004;2023-03-19T09:01:43;2.40;;;2.20;;
14247;SDS011;7208;49.826;6.004;2023-03-19T09:04:09;2.47;;;1.83;;
14247;SDS011;7208;49.826;6.004;2023-03-19T09:06:35;2.00;;;1.80;;
14247;SDS011;7208;49.826;6.004;2023-03-19T09:09:01;1.73;;;1.63;;
14247;SDS011;7208;49.826;6.004;2023-03-19T09:11:27;2.20;;;2.10;;
14247;SDS011;7208;49.826;6.004;2023-03-19T09:13:58;2.20;;;2.00;;
14247;SDS011;7208;49.826;6.004;2023-03-19T09:16:24;1.60;;;1.50;;
14247;SDS011;7208;49.826;6.004;2023-03-19T09:18:50;1.90;;;1.80;;
14247;SDS011;7208;49.826;6.004;2023-03-19T09:21:16;1.90;;;1.80;;
14247;SDS011;7208;49.826;6.004;2023-03-19T09:23:42;1.77;;;1.67;;
14247;SDS011;7208;49.826;6.004;2023-03-19T09:26:08;2.03;;;1.60;;
14247;SDS011;7208;49.826;6.004;2023-03-19T09:28:34;1.87;;;1.77;;
14247;SDS011;7208;49.826;6.004;2023-03-19T09:31:02;2.43;;;2.20;;
14247;SDS011;7208;49.826;6.004;2023-03-19T09:33:31;2.30;;;2.10;;
14247;SDS011;7208;49.826;6.004;2023-03-19T09:35:57;2.70;;;2.50;;
14247;SDS011;7208;49.826;6.004;2023-03-19T09:38:23;2.07;;;1.87;;
14247;SDS011;7208;49.826;6.004;2023-03-19T09:41:03;2.17;;;1.40;;
14247;SDS011;7208;49.826;6.004;2023-03-19T09:43:33;2.07;;;1.93;;
14247;SDS011;7208;49.826;6.004;2023-03-19T09:46:03;1.60;;;1.50;;
14247;SDS011;7208;49.826;6.004;2023-03-19T09:48:41;1.53;;;1.43;;
14247;SDS011;7208;49.826;6.004;2023-03-19T09:51:09;2.57;;;1.40;;
14247;SDS011;7208;49.826;6.004;2023-03-19T09:53:44;1.47;;;1.30;;
14247;SDS011;7208;49.826;6.004;2023-03-19T09:56:13;1.60;;;1.50;;
14247;SDS011;7208;49.826;6.004;2023-03-19T09:58:43;1.80;;;1.57;;
14247;SDS011;7208;49.826;6.004;2023-03-19T10:01:23;1.70;;;1.37;;
14247;SDS011;7208;49.826;6.004;2023-03-19T10:06:32;2.80;;;1.63;;
14247;SDS011;7208;49.826;6.004;2023-03-19T10:16:25;2.07;;;1.83;;
14247;SDS011;7208;49.826;6.004;2023-03-19T10:18:53;1.67;;;1.40;;
14247;SDS011;7208;49.826;6.004;2023-03-19T10:24:05;1.50;;;1.40;;
14247;SDS011;7208;49.826;6.004;2023-03-19T10:26:36;1.70;;;1.30;;
14247;SDS011;7208;49.826;6.004;2023-03-19T10:29:09;1.70;;;1.60;;
14247;SDS011;7208;49.826;6.004;2023-03-19T10:31:39;1.43;;;1.33;;
14247;SDS011;7208;49.826;6.004;2023-03-19T10:36:34;1.73;;;1.63;;
14247;SDS011;7208;49.826;6.004;2023-03-19T10:39:00;2.00;;;1.73;;
14247;SDS011;7208;49.826;6.004;2023-03-19T10:41:30;1.27;;;1.27;;
14247;SDS011;7208;49.826;6.004;2023-03-19T10:44:00;1.83;;;1.73;;
14247;SDS011;7208;49.826;6.004;2023-03-19T10:46:27;1.63;;;1.53;;
14247;SDS011;7208;49.826;6.004;2023-03-19T10:49:01;1.50;;;1.40;;
14247;SDS011;7208;49.826;6.004;2023-03-19T10:51:27;1.40;;;1.30;;
14247;SDS011;7208;49.826;6.004;2023-03-19T10:53:53;1.10;;;1.10;;
14247;SDS011;7208;49.826;6.004;2023-03-19T10:56:22;1.80;;;1.70;;
14247;SDS011;7208;49.826;6.004;2023-03-19T10:58:54;1.63;;;1.50;;
14247;SDS011;7208;49.826;6.004;2023-03-19T11:01:21;1.93;;;1.50;;
14247;SDS011;7208;49.826;6.004;2023-03-19T11:03:54;1.57;;;1.40;;
14247;SDS011;7208;49.826;6.004;2023-03-19T11:06:25;1.70;;;1.60;;
14247;SDS011;7208;49.826;6.004;2023-03-19T11:11:25;1.70;;;1.60;;
14247;SDS011;7208;49.826;6.004;2023-03-19T11:13:51;2.00;;;1.70;;
14247;SDS011;7208;49.826;6.004;2023-03-19T11:16:17;2.00;;;1.57;;
14247;SDS011;7208;49.826;6.004;2023-03-19T11:18:45;1.60;;;1.50;;
14247;SDS011;7208;49.826;6.004;2023-03-19T11:21:22;1.60;;;1.50;;
14247;SDS011;7208;49.826;6.004;2023-03-19T11:23:57;1.73;;;1.63;;
14247;SDS011;7208;49.826;6.004;2023-03-19T11:26:24;1.80;;;1.70;;
14247;SDS011;7208;49.826;6.004;2023-03-19T11:28:52;1.80;;;1.53;;
14247;SDS011;7208;49.826;6.004;2023-03-19T11:37:21;1.90;;;1.80;;
14247;SDS011;7208;49.826;6.004;2023-03-19T11:52:01;1.83;;;1.70;;
14247;SDS011;7208;49.826;6.004;2023-03-19T12:00:13;2.83;;;2.63;;
14247;SDS011;7208;49.826;6.004;2023-03-19T12:08:14;2.67;;;2.47;;
14247;SDS011;7208;49.826;6.004;2023-03-19T12:16:33;2.90;;;2.70;;
14247;SDS011;7208;49.826;6.004;2023-03-19T12:31:23;3.20;;;2.33;;
14247;SDS011;7208;49.826;6.004;2023-03-19T12:33:58;2.70;;;2.10;;
14247;SDS011;7208;49.826;6.004;2023-03-19T12:36:28;3.20;;;2.10;;
14247;SDS011;7208;49.826;6.004;2023-03-19T12:39:04;2.20;;;2.00;;
14247;SDS011;7208;49.826;6.004;2023-03-19T12:41:31;2.60;;;1.67;;
14247;SDS011;7208;49.826;6.004;2023-03-19T12:49:18;2.50;;;2.30;;
14247;SDS011;7208;49.826;6.004;2023-03-19T12:51:51;2.40;;;2.00;;
14247;SDS011;7208;49.826;6.004;2023-03-19T12:57:22;3.10;;;2.80;;
14247;SDS011;7208;49.826;6.004;2023-03-19T12:59:54;2.87;;;2.67;;
14247;SDS011;7208;49.826;6.004;2023-03-19T13:02:25;2.73;;;2.50;;
14247;SDS011;7208;49.826;6.004;2023-03-19T13:04:54;2.00;;;1.80;;
14247;SDS011;7208;49.826;6.004;2023-03-19T13:07:23;2.90;;;2.00;;
14247;SDS011;7208;49.826;6.004;2023-03-19T13:09:58;2.77;;;2.20;;
14247;SDS011;7208;49.826;6.004;2023-03-19T13:12:26;2.23;;;2.07;;
14247;SDS011;7208;49.826;6.004;2023-03-19T13:15:02;3.40;;;2.00;;
14247;SDS011;7208;49.826;6.004;2023-03-19T13:19:56;2.33;;;2.13;;
14247;SDS011;7208;49.826;6.004;2023-03-19T13:22:27;2.33;;;2.13;;
14247;SDS011;7208;49.826;6.004;2023-03-19T13:24:55;1.73;;;1.63;;
14247;SDS011;7208;49.826;6.004;2023-03-19T13:27:25;1.90;;;1.80;;
14247;SDS011;7208;49.826;6.004;2023-03-19T13:29:54;1.80;;;1.70;;
14247;SDS011;7208;49.826;6.004;2023-03-19T13:32:28;1.70;;;1.60;;
14247;SDS011;7208;49.826;6.004;2023-03-19T13:37:41;2.27;;;2.10;;
14247;SDS011;7208;49.826;6.004;2023-03-19T13:40:34;2.10;;;1.90;;
14247;SDS011;7208;49.826;6.004;2023-03-19T13:42:55;2.40;;;2.20;;
14247;SDS011;7208;49.826;6.004;2023-03-19T13:47:48;2.23;;;2.13;;
14247;SDS011;7208;49.826;6.004;2023-03-19T14:03:19;0.90;;;0.90;;
14247;SDS011;7208;49.826;6.004;2023-03-19T14:05:46;1.10;;;0.90;;
14247;SDS011;7208;49.826;6.004;2023-03-19T14:08:20;0.97;;;0.97;;
14247;SDS011;7208;49.826;6.004;2023-03-19T14:11:05;0.90;;;0.90;;
14247;SDS011;7208;49.826;6.004;2023-03-19T14:13:33;0.87;;;0.67;;
14247;SDS011;7208;49.826;6.004;2023-03-19T14:16:04;0.63;;;0.63;;
14247;SDS011;7208;49.826;6.004;2023-03-19T14:18:32;0.70;;;0.70;;
14247;SDS011;7208;49.826;6.004;2023-03-19T14:21:02;0.97;;;0.50;;
14247;SDS011;7208;49.826;6.004;2023-03-19T14:23:28;0.40;;;0.40;;
14247;SDS011;7208;49.826;6.004;2023-03-19T14:29:27;0.77;;;0.40;;
14247;SDS011;7208;49.826;6.004;2023-03-19T14:31:40;0.30;;;0.30;;
14247;SDS011;7208;49.826;6.004;2023-03-19T14:36:44;0.37;;;0.37;;
14247;SDS011;7208;49.826;6.004;2023-03-19T14:39:21;0.30;;;0.30;;
14247;SDS011;7208;49.826;6.004;2023-03-19T14:41:48;0.57;;;0.33;;
14247;SDS011;7208;49.826;6.004;2023-03-19T14:56:55;0.20;;;0.20;;
14247;SDS011;7208;49.826;6.004;2023-03-19T14:59:21;0.20;;;0.20;;
14247;SDS011;7208;49.826;6.004;2023-03-19T15:01:51;0.20;;;0.20;;
14247;SDS011;7208;49.826;6.004;2023-03-19T15:04:19;0.33;;;0.10;;
14247;SDS011;7208;49.826;6.004;2023-03-19T15:06:50;0.20;;;0.20;;
14247;SDS011;7208;49.826;6.004;2023-03-19T15:09:21;1.50;;;0.17;;
14247;SDS011;7208;49.826;6.004;2023-03-19T15:17:26;0.10;;;0.10;;
14247;SDS011;7208;49.826;6.004;2023-03-19T15:19:53;0.20;;;0.20;;
14247;SDS011;7208;49.826;6.004;2023-03-19T15:25:05;0.00;;;0.00;;
14247;SDS011;7208;49.826;6.004;2023-03-19T15:27:31;0.00;;;0.00;;
14247;SDS011;7208;49.826;6.004;2023-03-19T15:29:57;0.27;;;0.20;;
14247;SDS011;7208;49.826;6.004;2023-03-19T15:32:30;0.00;;;0.00;;
14247;SDS011;7208;49.826;6.004;2023-03-19T15:34:57;0.10;;;0.10;;
14247;SDS011;7208;49.826;6.004;2023-03-19T15:37:23;0.20;;;0.10;;
14247;SDS011;7208;49.826;6.004;2023-03-19T15:39:51;0.10;;;0.10;;
14247;SDS011;7208;49.826;6.004;2023-03-19T15:42:19;0.13;;;0.13;;
14247;SDS011;7208;49.826;6.004;2023-03-19T15:44:47;0.77;;;0.10;;
14247;SDS011;7208;49.826;6.004;2023-03-19T15:47:16;0.00;;;0.00;;
14247;SDS011;7208;49.826;6.004;2023-03-19T15:49:54;0.00;;;0.00;;
14247;SDS011;7208;49.826;6.004;2023-03-19T15:52:23;0.00;;;0.00;;
14247;SDS011;7208;49.826;6.004;2023-03-19T15:54:50;0.10;;;0.10;;
14247;SDS011;7208;49.826;6.004;2023-03-19T15:57:18;0.10;;;0.10;;
14247;SDS011;7208;49.826;6.004;2023-03-19T15:59:45;0.80;;;0.10;;
14247;SDS011;7208;49.826;6.004;2023-03-19T16:05:21;0.10;;;0.10;;
14247;SDS011;7208;49.826;6.004;2023-03-19T16:08:21;0.10;;;0.10;;
14247;SDS011;7208;49.826;6.004;2023-03-19T16:10:40;0.20;;;0.20;;
14247;SDS011;7208;49.826;6.004;2023-03-19T16:15:52;0.20;;;0.20;;
14247;SDS011;7208;49.826;6.004;2023-03-19T16:20:47;0.27;;;0.10;;
14247;SDS011;7208;49.826;6.004;2023-03-19T16:23:22;0.20;;;0.20;;
14247;SDS011;7208;49.826;6.004;2023-03-19T16:25:53;0.30;;;0.30;;
14247;SDS011;7208;49.826;6.004;2023-03-19T16:28:19;0.10;;;0.10;;
14247;SDS011;7208;49.826;6.004;2023-03-19T16:30:48;0.20;;;0.20;;
14247;SDS011;7208;49.826;6.004;2023-03-19T16:33:15;0.27;;;0.27;;
14247;SDS011;7208;49.826;6.004;2023-03-19T16:35:41;2.17;;;0.30;;
14247;SDS011;7208;49.826;6.004;2023-03-19T16:43:16;0.27;;;0.20;;
14247;SDS011;7208;49.826;6.004;2023-03-19T16:45:43;0.53;;;0.40;;
14247;SDS011;7208;49.826;6.004;2023-03-19T16:48:09;0.30;;;0.30;;
14247;SDS011;7208;49.826;6.004;2023-03-19T16:50:36;0.90;;;0.30;;
14247;SDS011;7208;49.826;6.004;2023-03-19T16:53:15;0.50;;;0.50;;
14247;SDS011;7208;49.826;6.004;2023-03-19T16:55:45;0.80;;;0.80;;
14247;SDS011;7208;49.826;6.004;2023-03-19T16:58:12;0.97;;;0.90;;
14247;SDS011;7208;49.826;6.004;2023-03-19T17:00:39;1.80;;;1.27;;
14247;SDS011;7208;49.826;6.004;2023-03-19T17:03:14;0.20;;;0.20;;
14247;SDS011;7208;49.826;6.004;2023-03-19T17:05:40;0.10;;;0.10;;
14247;SDS011;7208;49.826;6.004;2023-03-19T17:08:06;0.10;;;0.10;;
14247;SDS011;7208;49.826;6.004;2023-03-19T17:10:33;0.40;;;0.20;;
14247;SDS011;7208;49.826;6.004;2023-03-19T17:13:00;0.10;;;0.10;;
14247;SDS011;7208;49.826;6.004;2023-03-19T17:15:36;0.20;;;0.20;;
14247;SDS011;7208;49.826;6.004;2023-03-19T17:18:09;0.10;;;0.10;;
14247;SDS011;7208;49.826;6.004;2023-03-19T17:20:36;0.50;;;0.20;;